sensor_id;sensor_type;location;lat;lon;timestamp;pressure;altitude;pressure_sealevel;temperature;humidity
18509;BME280;9383;50.928;12.116;2023-01-28T00:00:10;99673.44;;;0.33;100.00
18509;BME280;9383;50.928;12.116;2023-01-28T00:02:37;99686.44;;;0.31;100.00
18509;BME280;9383;50.928;12.116;2023-01-28T00:05:04;99688.13;;;0.31;100.00
18509;BME280;9383;50.928;12.116;2023-01-28T00:07:31;99680.31;;;0.29;100.00
18509;BME280;9383;50.928;12.116;2023-01-28T00:09:57;99681.16;;;0.30;100.00
18509;BME280;9383;50.928;12.116;2023-01-28T00:12:23;99688.13;;;0.31;100.00
18509;BME280;9383;50.928;12.116;2023-01-28T00:14:50;99678.56;;;0.30;100.00
18509;BME280;9383;50.928;12.116;2023-01-28T00:17:16;99678.56;;;0.28;100.00
18509;BME280;9383;50.928;12.116;2023-01-28T00:19:43;99685.47;;;0.26;100.00
18509;BME280;9383;50.928;12.116;2023-01-28T00:22:10;99684.63;;;0.27;100.00
18509;BME280;9383;50.928;12.116;2023-01-28T00:24:36;99680.28;;;0.27;100.00
18509;BME280;9383;50.928;12.116;2023-01-28T00:27:03;99686.28;;;0.25;100.00
18509;BME280;9383;50.928;12.116;2023-01-28T00:29:29;99681.09;;;0.25;100.00
18509;BME280;9383;50.928;12.116;2023-01-28T00:31:56;99677.66;;;0.26;100.00
18509;BME280;9383;50.928;12.116;2023-01-28T00:34:22;99683.69;;;0.25;100.00
18509;BME280;9383;50.928;12.116;2023-01-28T00:36:49;99682.88;;;0.26;100.00
18509;BME280;9383;50.928;12.116;2023-01-28T00:39:24;99677.63;;;0.24;100.00
18509;BME280;9383;50.928;12.116;2023-01-28T00:41:51;99682.78;;;0.23;100.00
18509;BME280;9383;50.928;12.116;2023-01-28T00:44:19;99677.56;;;0.23;100.00
18509;BME280;9383;50.928;12.116;2023-01-28T00:47:05;99682.78;;;0.21;100.00
18509;BME280;9383;50.928;12.116;2023-01-28T00:49:32;99683.63;;;0.20;100.00
18509;BME280;9383;50.928;12.116;2023-01-28T00:51:58;99687.94;;;0.20;100.00
18509;BME280;9383;50.928;12.116;2023-01-28T00:54:31;99684.47;;;0.19;100.00
18509;BME280;9383;50.928;12.116;2023-01-28T00:56:57;99679.25;;;0.19;100.00
18509;BME280;9383;50.928;12.116;2023-01-28T00:59:24;99686.19;;;0.19;100.00
18509;BME280;9383;50.928;12.116;2023-01-28T01:01:50;99685.34;;;0.20;100.00
18509;BME280;9383;50.928;12.116;2023-01-28T01:04:17;99687.09;;;0.21;100.00
18509;BME280;9383;50.928;12.116;2023-01-28T01:06:51;99680.09;;;0.18;100.00
18509;BME280;9383;50.928;12.116;2023-01-28T01:09:18;99683.59;;;0.19;100.00
18509;BME280;9383;50.928;12.116;2023-01-28T01:11:45;99690.56;;;0.20;100.00
18509;BME280;9383;50.928;12.116;2023-01-28T01:14:12;99699.22;;;0.19;100.00
18509;BME280;9383;50.928;12.116;2023-01-28T01:16:38;99694.88;;;0.18;100.00
18509;BME280;9383;50.928;12.116;2023-01-28T01:19:04;99703.53;;;0.17;100.00
18509;BME280;9383;50.928;12.116;2023-01-28T01:21:31;99705.28;;;0.18;100.00
18509;BME280;9383;50.928;12.116;2023-01-28T01:23:58;99700.09;;;0.18;100.00
18509;BME280;9383;50.928;12.116;2023-01-28T01:26:25;99697.47;;;0.18;100.00
18509;BME280;9383;50.928;12.116;2023-01-28T01:28:52;99697.47;;;0.18;100.00
18509;BME280;9383;50.928;12.116;2023-01-28T01:31:20;99701.00;;;0.20;100.00
18509;BME280;9383;50.928;12.116;2023-01-28T01:33:51;99699.28;;;0.20;100.00
18509;BME280;9383;50.928;12.116;2023-01-28T01:36:18;99696.66;;;0.20;100.00
18509;BME280;9383;50.928;12.116;2023-01-28T01:38:47;99698.44;;;0.21;100.00
18509;BME280;9383;50.928;12.116;2023-01-28T01:41:29;99694.06;;;0.22;100.00
18509;BME280;9383;50.928;12.116;2023-01-28T01:43:58;99694.06;;;0.20;100.00
18509;BME280;9383;50.928;12.116;2023-01-28T01:46:31;99688.81;;;0.19;100.00
18509;BME280;9383;50.928;12.116;2023-01-28T01:49:10;99688.81;;;0.19;100.00
18509;BME280;9383;50.928;12.116;2023-01-28T01:51:39;99682.69;;;0.18;100.00
18509;BME280;9383;50.928;12.116;2023-01-28T01:54:06;99687.03;;;0.18;100.00
18509;BME280;9383;50.928;12.116;2023-01-28T01:56:37;99692.25;;;0.18;100.00
18509;BME280;9383;50.928;12.116;2023-01-28T01:59:07;99693.97;;;0.17;100.00
18509;BME280;9383;50.928;12.116;2023-01-28T02:01:36;99702.69;;;0.18;100.00
18509;BME280;9383;50.928;12.116;2023-01-28T02:04:25;99701.78;;;0.17;100.00
18509;BME280;9383;50.928;12.116;2023-01-28T02:06:54;99709.63;;;0.17;100.00
18509;BME280;9383;50.928;12.116;2023-01-28T02:09:29;99714.84;;;0.17;100.00
18509;BME280;9383;50.928;12.116;2023-01-28T02:11:59;99718.28;;;0.15;100.00
18509;BME280;9383;50.928;12.116;2023-01-28T02:14:29;99720.84;;;0.13;100.00
18509;BME280;9383;50.928;12.116;2023-01-28T02:16:59;99715.63;;;0.13;100.00
18509;BME280;9383;50.928;12.116;2023-01-28T02:19:35;99720.84;;;0.13;100.00
18509;BME280;9383;50.928;12.116;2023-01-28T02:30:51;99724.41;;;0.17;100.00
18509;BME280;9383;50.928;12.116;2023-01-28T02:33:28;99716.59;;;0.17;100.00
18509;BME280;9383;50.928;12.116;2023-01-28T02:35:58;99720.03;;;0.16;100.00
18509;BME280;9383;50.928;12.116;2023-01-28T02:38:32;99733.94;;;0.16;100.00
18509;BME280;9383;50.928;12.116;2023-01-28T02:41:08;99728.75;;;0.18;100.00
18509;BME280;9383;50.928;12.116;2023-01-28T02:43:45;99726.13;;;0.16;100.00
18509;BME280;9383;50.928;12.116;2023-01-28T02:49:13;99737.38;;;0.13;100.00
18509;BME280;9383;50.928;12.116;2023-01-28T03:00:15;99732.06;;;0.09;100.00
18509;BME280;9383;50.928;12.116;2023-01-28T03:02:49;99740.75;;;0.09;100.00
18509;BME280;9383;50.928;12.116;2023-01-28T03:05:26;99734.59;;;0.06;100.00
18509;BME280;9383;50.928;12.116;2023-01-28T03:07:55;99750.22;;;0.04;100.00
18509;BME280;9383;50.928;12.116;2023-01-28T03:10:25;99737.16;;;0.03;100.00
18509;BME280;9383;50.928;12.116;2023-01-28T03:12:55;99746.72;;;0.02;100.00
18509;BME280;9383;50.928;12.116;2023-01-28T03:15:44;99747.47;;;-0.02;100.00
18509;BME280;9383;50.928;12.116;2023-01-28T03:21:27;99740.50;;;-0.03;100.00
18509;BME280;9383;50.928;12.116;2023-01-28T03:24:31;99744.81;;;-0.05;100.00
18509;BME280;9383;50.928;12.116;2023-01-28T03:27:37;99745.72;;;-0.03;100.00
18509;BME280;9383;50.928;12.116;2023-01-28T03:30:35;99737.00;;;-0.05;100.00
18509;BME280;9383;50.928;12.116;2023-01-28T03:33:23;99741.34;;;-0.06;100.00
18509;BME280;9383;50.928;12.116;2023-01-28T03:36:10;99743.00;;;-0.09;100.00
18509;BME280;9383;50.928;12.116;2023-01-28T03:38:55;99749.06;;;-0.10;100.00
18509;BME280;9383;50.928;12.116;2023-01-28T03:41:25;99752.53;;;-0.10;100.00
18509;BME280;9383;50.928;12.116;2023-01-28T03:43:52;99749.91;;;-0.10;100.00
18509;BME280;9383;50.928;12.116;2023-01-28T03:46:19;99757.75;;;-0.10;100.00
18509;BME280;9383;50.928;12.116;2023-01-28T03:48:45;99755.97;;;-0.11;100.00
18509;BME280;9383;50.928;12.116;2023-01-28T03:51:13;99760.34;;;-0.11;100.00
18509;BME280;9383;50.928;12.116;2023-01-28T03:53:41;99755.94;;;-0.14;100.00
18509;BME280;9383;50.928;12.116;2023-01-28T03:56:08;99761.94;;;-0.17;100.00
18509;BME280;9383;50.928;12.116;2023-01-28T03:58:35;99757.56;;;-0.18;100.00
18509;BME280;9383;50.928;12.116;2023-01-28T04:01:22;99762.78;;;-0.18;100.00
18509;BME280;9383;50.928;12.116;2023-01-28T04:03:49;99772.34;;;-0.18;100.00
18509;BME280;9383;50.928;12.116;2023-01-28T04:06:15;99764.50;;;-0.20;100.00
18509;BME280;9383;50.928;12.116;2023-01-28T04:08:42;99770.59;;;-0.18;100.00
18509;BME280;9383;50.928;12.116;2023-01-28T04:11:14;99770.56;;;-0.19;100.00
18509;BME280;9383;50.928;12.116;2023-01-28T04:13:42;99767.09;;;-0.20;100.00
18509;BME280;9383;50.928;12.116;2023-01-28T04:16:10;99771.44;;;-0.19;100.00
18509;BME280;9383;50.928;12.116;2023-01-28T04:18:37;99770.59;;;-0.18;100.00
18509;BME280;9383;50.928;12.116;2023-01-28T04:21:05;99775.81;;;-0.18;100.00
18509;BME280;9383;50.928;12.116;2023-01-28T04:23:32;99771.50;;;-0.16;100.00
18509;BME280;9383;50.928;12.116;2023-01-28T04:25:59;99771.44;;;-0.19;100.00
18509;BME280;9383;50.928;12.116;2023-01-28T04:28:26;99774.00;;;-0.20;100.00
18509;BME280;9383;50.928;12.116;2023-01-28T04:30:54;99772.25;;;-0.23;100.00
18509;BME280;9383;50.928;12.116;2023-01-28T04:33:21;99777.34;;;-0.26;100.00
18509;BME280;9383;50.928;12.116;2023-01-28T04:35:49;99782.56;;;-0.27;100.00
18509;BME280;9383;50.928;12.116;2023-01-28T04:38:17;99782.50;;;-0.29;100.00
18509;BME280;9383;50.928;12.116;2023-01-28T04:40:47;99777.31;;;-0.29;100.00
18509;BME280;9383;50.928;12.116;2023-01-28T04:43:17;99780.72;;;-0.32;100.00
18509;BME280;9383;50.928;12.116;2023-01-28T04:45:46;99774.63;;;-0.32;100.00
18509;BME280;9383;50.928;12.116;2023-01-28T04:48:14;99785.00;;;-0.34;100.00
18509;BME280;9383;50.928;12.116;2023-01-28T04:50:43;99785.00;;;-0.35;100.00
18509;BME280;9383;50.928;12.116;2023-01-28T04:53:10;99795.41;;;-0.35;100.00
18509;BME280;9383;50.928;12.116;2023-01-28T04:55:37;99789.28;;;-0.37;100.00
18509;BME280;9383;50.928;12.116;2023-01-28T04:58:04;99792.75;;;-0.37;100.00
18509;BME280;9383;50.928;12.116;2023-01-28T05:00:31;99791.91;;;-0.36;100.00
18509;BME280;9383;50.928;12.116;2023-01-28T05:02:58;99795.44;;;-0.34;100.00
18509;BME280;9383;50.928;12.116;2023-01-28T05:05:24;99793.72;;;-0.32;100.00
18509;BME280;9383;50.928;12.116;2023-01-28T05:07:52;99798.09;;;-0.32;100.00
18509;BME280;9383;50.928;12.116;2023-01-28T05:10:21;99801.56;;;-0.32;100.00
18509;BME280;9383;50.928;12.116;2023-01-28T05:12:48;99798.94;;;-0.33;100.00
18509;BME280;9383;50.928;12.116;2023-01-28T05:15:16;99809.34;;;-0.33;100.00
18509;BME280;9383;50.928;12.116;2023-01-28T05:17:45;99808.44;;;-0.35;100.00
18509;BME280;9383;50.928;12.116;2023-01-28T05:20:13;99805.78;;;-0.37;100.00
18509;BME280;9383;50.928;12.116;2023-01-28T05:22:41;99805.75;;;-0.38;100.00
18509;BME280;9383;50.928;12.116;2023-01-28T05:25:08;99814.41;;;-0.39;100.00
18509;BME280;9383;50.928;12.116;2023-01-28T05:27:35;99819.53;;;-0.43;100.00
18509;BME280;9383;50.928;12.116;2023-01-28T05:30:02;99731.38;;;-1.01;100.00
18509;BME280;9383;50.928;12.116;2023-01-28T05:32:30;99813.31;;;-0.49;100.00
18509;BME280;9383;50.928;12.116;2023-01-28T05:34:57;99819.41;;;-0.49;100.00
18509;BME280;9383;50.928;12.116;2023-01-28T05:37:23;99829.84;;;-0.49;100.00
18509;BME280;9383;50.928;12.116;2023-01-28T05:39:51;99828.06;;;-0.50;100.00
18509;BME280;9383;50.928;12.116;2023-01-28T05:42:18;99830.63;;;-0.51;100.00
18509;BME280;9383;50.928;12.116;2023-01-28T05:44:46;99826.22;;;-0.54;100.00
18509;BME280;9383;50.928;12.116;2023-01-28T05:47:12;99820.16;;;-0.54;100.00
18509;BME280;9383;50.928;12.116;2023-01-28T05:49:39;99821.00;;;-0.55;100.00
18509;BME280;9383;50.928;12.116;2023-01-28T05:52:06;99826.19;;;-0.55;100.00
18509;BME280;9383;50.928;12.116;2023-01-28T05:54:33;99833.13;;;-0.56;100.00
18509;BME280;9383;50.928;12.116;2023-01-28T05:57:00;99833.91;;;-0.59;100.00
18509;BME280;9383;50.928;12.116;2023-01-28T05:59:27;99837.41;;;-0.58;100.00
18509;BME280;9383;50.928;12.116;2023-01-28T06:01:54;99841.72;;;-0.59;100.00
18509;BME280;9383;50.928;12.116;2023-01-28T06:04:20;99840.88;;;-0.59;100.00
18509;BME280;9383;50.928;12.116;2023-01-28T06:06:47;99835.59;;;-0.61;100.00
18509;BME280;9383;50.928;12.116;2023-01-28T06:09:14;99861.66;;;-0.61;100.00
18509;BME280;9383;50.928;12.116;2023-01-28T06:11:41;99859.03;;;-0.62;100.00
18509;BME280;9383;50.928;12.116;2023-01-28T06:14:08;99861.63;;;-0.62;100.00
18509;BME280;9383;50.928;12.116;2023-01-28T06:16:34;99861.63;;;-0.62;100.00
18509;BME280;9383;50.928;12.116;2023-01-28T06:19:01;99861.56;;;-0.64;100.00
18509;BME280;9383;50.928;12.116;2023-01-28T06:21:28;99864.19;;;-0.64;100.00
18509;BME280;9383;50.928;12.116;2023-01-28T06:23:55;99872.84;;;-0.63;100.00
18509;BME280;9383;50.928;12.116;2023-01-28T06:26:21;99874.66;;;-0.62;100.00
18509;BME280;9383;50.928;12.116;2023-01-28T06:28:48;99877.25;;;-0.62;100.00
18509;BME280;9383;50.928;12.116;2023-01-28T06:31:15;99877.25;;;-0.62;100.00
18509;BME280;9383;50.928;12.116;2023-01-28T06:33:42;99877.19;;;-0.64;100.00
18509;BME280;9383;50.928;12.116;2023-01-28T06:36:09;99874.59;;;-0.64;100.00
18509;BME280;9383;50.928;12.116;2023-01-28T06:38:38;99869.38;;;-0.64;100.00
18509;BME280;9383;50.928;12.116;2023-01-28T06:41:05;99880.66;;;-0.63;100.00
18509;BME280;9383;50.928;12.116;2023-01-28T06:43:32;99886.72;;;-0.64;100.00
18509;BME280;9383;50.928;12.116;2023-01-28T06:46:00;99882.34;;;-0.67;100.00
18509;BME280;9383;50.928;12.116;2023-01-28T06:48:27;99885.75;;;-0.69;100.00
18509;BME280;9383;50.928;12.116;2023-01-28T06:50:54;99885.75;;;-0.69;100.00
18509;BME280;9383;50.928;12.116;2023-01-28T06:53:21;99887.44;;;-0.70;100.00
18509;BME280;9383;50.928;12.116;2023-01-28T06:55:48;99896.09;;;-0.71;100.00
18509;BME280;9383;50.928;12.116;2023-01-28T06:58:15;99897.00;;;-0.71;100.00
18509;BME280;9383;50.928;12.116;2023-01-28T07:00:41;99902.19;;;-0.71;100.00
18509;BME280;9383;50.928;12.116;2023-01-28T07:03:09;99900.44;;;-0.72;100.00
18509;BME280;9383;50.928;12.116;2023-01-28T07:05:36;99903.06;;;-0.72;100.00
18509;BME280;9383;50.928;12.116;2023-01-28T07:08:02;99903.88;;;-0.73;100.00
18509;BME280;9383;50.928;12.116;2023-01-28T07:10:30;99908.19;;;-0.75;100.00
18509;BME280;9383;50.928;12.116;2023-01-28T07:12:57;99909.03;;;-0.76;100.00
18509;BME280;9383;50.928;12.116;2023-01-28T07:15:24;99908.13;;;-0.76;100.00
18509;BME280;9383;50.928;12.116;2023-01-28T07:17:50;99908.06;;;-0.79;100.00
18509;BME280;9383;50.928;12.116;2023-01-28T07:20:18;99911.50;;;-0.80;100.00
18509;BME280;9383;50.928;12.116;2023-01-28T07:22:45;99915.81;;;-0.81;100.00
18509;BME280;9383;50.928;12.116;2023-01-28T07:25:13;99918.41;;;-0.81;100.00
18509;BME280;9383;50.928;12.116;2023-01-28T07:27:51;99918.41;;;-0.81;100.00
18509;BME280;9383;50.928;12.116;2023-01-28T07:30:19;99926.22;;;-0.81;100.00
18509;BME280;9383;50.928;12.116;2023-01-28T07:32:48;99914.13;;;-0.79;100.00
18509;BME280;9383;50.928;12.116;2023-01-28T07:35:18;99907.22;;;-0.77;100.00
18509;BME280;9383;50.928;12.116;2023-01-28T07:37:53;99911.56;;;-0.77;100.00
18509;BME280;9383;50.928;12.116;2023-01-28T07:40:21;99918.47;;;-0.79;100.00
18509;BME280;9383;50.928;12.116;2023-01-28T07:42:48;99914.06;;;-0.82;100.00
18509;BME280;9383;50.928;12.116;2023-01-28T07:45:16;99907.94;;;-0.84;100.00
18509;BME280;9383;50.928;12.116;2023-01-28T07:47:43;99913.16;;;-0.82;100.00
18509;BME280;9383;50.928;12.116;2023-01-28T07:50:10;99908.78;;;-0.85;100.00
18509;BME280;9383;50.928;12.116;2023-01-28T07:52:38;99913.97;;;-0.85;100.00
18509;BME280;9383;50.928;12.116;2023-01-28T07:55:12;99915.66;;;-0.87;100.00
18509;BME280;9383;50.928;12.116;2023-01-28T07:57:57;99919.84;;;-0.92;100.00
18509;BME280;9383;50.928;12.116;2023-01-28T08:00:27;99923.34;;;-0.92;100.00
18509;BME280;9383;50.928;12.116;2023-01-28T08:02:58;99919.84;;;-0.92;100.00
18509;BME280;9383;50.928;12.116;2023-01-28T08:05:27;99925.75;;;-0.98;100.00
18509;BME280;9383;50.928;12.116;2023-01-28T08:07:57;99929.06;;;-1.04;100.00
18509;BME280;9383;50.928;12.116;2023-01-28T08:10:25;99928.06;;;-1.09;100.00
18509;BME280;9383;50.928;12.116;2023-01-28T08:12:57;99934.91;;;-1.13;100.00
18509;BME280;9383;50.928;12.116;2023-01-28T08:15:27;99926.19;;;-1.15;100.00
18509;BME280;9383;50.928;12.116;2023-01-28T08:17:56;99931.31;;;-1.16;100.00
18509;BME280;9383;50.928;12.116;2023-01-28T08:20:24;99927.81;;;-1.18;100.00
18509;BME280;9383;50.928;12.116;2023-01-28T08:22:52;99943.47;;;-1.17;100.00
18509;BME280;9383;50.928;12.116;2023-01-28T08:25:19;99940.88;;;-1.15;100.00
18509;BME280;9383;50.928;12.116;2023-01-28T08:27:46;99940.03;;;-1.16;100.00
18509;BME280;9383;50.928;12.116;2023-01-28T08:30:13;99947.00;;;-1.15;100.00
18509;BME280;9383;50.928;12.116;2023-01-28T08:32:40;99947.84;;;-1.14;100.00
18509;BME280;9383;50.928;12.116;2023-01-28T08:35:07;99945.25;;;-1.14;100.00
18509;BME280;9383;50.928;12.116;2023-01-28T08:37:34;99945.31;;;-1.13;100.00
18509;BME280;9383;50.928;12.116;2023-01-28T08:40:01;99953.16;;;-1.11;100.00
18509;BME280;9383;50.928;12.116;2023-01-28T08:42:29;99954.03;;;-1.10;100.00
18509;BME280;9383;50.928;12.116;2023-01-28T08:44:58;99953.16;;;-1.11;100.00
18509;BME280;9383;50.928;12.116;2023-01-28T08:47:25;99957.56;;;-1.08;100.00
18509;BME280;9383;50.928;12.116;2023-01-28T08:49:51;99956.69;;;-1.09;100.00
18509;BME280;9383;50.928;12.116;2023-01-28T08:52:19;99962.75;;;-1.08;100.00
18509;BME280;9383;50.928;12.116;2023-01-28T08:54:46;99959.44;;;-1.04;100.00
18509;BME280;9383;50.928;12.116;2023-01-28T08:57:13;99953.38;;;-1.03;100.00
18509;BME280;9383;50.928;12.116;2023-01-28T08:59:41;99958.59;;;-1.03;100.00
18509;BME280;9383;50.928;12.116;2023-01-28T09:02:13;99960.28;;;-1.05;100.00
18509;BME280;9383;50.928;12.116;2023-01-28T09:04:41;99957.69;;;-1.05;100.00
18509;BME280;9383;50.928;12.116;2023-01-28T09:07:08;99959.47;;;-1.03;100.00
18509;BME280;9383;50.928;12.116;2023-01-28T09:09:35;99957.81;;;-1.01;100.00
18509;BME280;9383;50.928;12.116;2023-01-28T09:12:02;99959.50;;;-1.01;100.00
18509;BME280;9383;50.928;12.116;2023-01-28T09:14:28;99957.84;;;-0.99;100.00
18509;BME280;9383;50.928;12.116;2023-01-28T09:16:55;99961.34;;;-0.97;100.00
18509;BME280;9383;50.928;12.116;2023-01-28T09:19:22;99964.88;;;-0.95;100.00
18509;BME280;9383;50.928;12.116;2023-01-28T09:21:48;99969.34;;;-0.91;100.00
18509;BME280;9383;50.928;12.116;2023-01-28T09:24:15;99970.34;;;-0.87;100.00
18509;BME280;9383;50.928;12.116;2023-01-28T09:26:42;99967.81;;;-0.84;100.00
18509;BME280;9383;50.928;12.116;2023-01-28T09:29:09;99980.94;;;-0.79;100.00
18509;BME280;9383;50.928;12.116;2023-01-28T09:31:36;99992.34;;;-0.76;100.00
18509;BME280;9383;50.928;12.116;2023-01-28T09:34:04;99988.06;;;-0.72;100.00
18509;BME280;9383;50.928;12.116;2023-01-28T09:36:31;99995.09;;;-0.69;100.00
18509;BME280;9383;50.928;12.116;2023-01-28T09:38:58;99988.25;;;-0.66;99.53
18509;BME280;9383;50.928;12.116;2023-01-28T09:41:28;99985.69;;;-0.64;99.37
18509;BME280;9383;50.928;12.116;2023-01-28T09:44:20;99985.78;;;-0.61;99.82
18509;BME280;9383;50.928;12.116;2023-01-28T09:46:49;99992.91;;;-0.54;99.63
18509;BME280;9383;50.928;12.116;2023-01-28T09:49:24;100000.81;;;-0.51;99.83
18509;BME280;9383;50.928;12.116;2023-01-28T09:51:53;99999.22;;;-0.46;99.81
18509;BME280;9383;50.928;12.116;2023-01-28T09:54:34;99998.44;;;-0.41;99.08
18509;BME280;9383;50.928;12.116;2023-01-28T09:57:11;99999.47;;;-0.36;98.95
18509;BME280;9383;50.928;12.116;2023-01-28T09:59:40;99998.63;;;-0.35;98.20
18509;BME280;9383;50.928;12.116;2023-01-28T10:02:36;100001.25;;;-0.34;98.47
18509;BME280;9383;50.928;12.116;2023-01-28T10:08:01;100017.84;;;-0.30;96.81
18509;BME280;9383;50.928;12.116;2023-01-28T10:10:54;100013.56;;;-0.28;97.33
18509;BME280;9383;50.928;12.116;2023-01-28T10:13:45;100013.69;;;-0.23;96.63
18509;BME280;9383;50.928;12.116;2023-01-28T10:16:42;99942.25;;;-0.65;96.59
18509;BME280;9383;50.928;12.116;2023-01-28T10:19:22;100012.91;;;-0.21;96.16
18509;BME280;9383;50.928;12.116;2023-01-28T10:21:59;100012.97;;;-0.18;96.16
18509;BME280;9383;50.928;12.116;2023-01-28T10:26:56;100014.94;;;-0.09;97.19
18509;BME280;9383;50.928;12.116;2023-01-28T10:29:26;100021.09;;;-0.05;96.65
18509;BME280;9383;50.928;12.116;2023-01-28T10:34:23;100009.09;;;0.02;96.09
18509;BME280;9383;50.928;12.116;2023-01-28T10:36:51;100017.94;;;0.07;96.30
18509;BME280;9383;50.928;12.116;2023-01-28T10:39:21;100019.84;;;0.14;96.53
18509;BME280;9383;50.928;12.116;2023-01-28T10:41:48;100017.34;;;0.19;96.55
18509;BME280;9383;50.928;12.116;2023-01-28T10:44:41;100027.91;;;0.25;96.87
18509;BME280;9383;50.928;12.116;2023-01-28T10:47:13;100012.25;;;0.23;96.80
18509;BME280;9383;50.928;12.116;2023-01-28T10:49:46;100022.09;;;0.35;96.89
18509;BME280;9383;50.928;12.116;2023-01-28T10:52:16;100016.13;;;0.39;96.51
18509;BME280;9383;50.928;12.116;2023-01-28T10:54:44;100025.78;;;0.44;96.90
18509;BME280;9383;50.928;12.116;2023-01-28T10:57:12;100019.78;;;0.48;96.42
18509;BME280;9383;50.928;12.116;2023-01-28T10:59:42;100023.34;;;0.51;96.55
18509;BME280;9383;50.928;12.116;2023-01-28T11:02:30;100020.72;;;0.51;95.87
18509;BME280;9383;50.928;12.116;2023-01-28T11:05:20;100019.78;;;0.48;94.81
18509;BME280;9383;50.928;12.116;2023-01-28T11:07:48;100011.09;;;0.49;94.42
18509;BME280;9383;50.928;12.116;2023-01-28T11:10:30;100016.38;;;0.50;95.08
18509;BME280;9383;50.928;12.116;2023-01-28T11:13:05;99931.78;;;0.02;94.46
18509;BME280;9383;50.928;12.116;2023-01-28T11:15:32;100011.19;;;0.52;94.82
18509;BME280;9383;50.928;12.116;2023-01-28T11:18:07;100004.22;;;0.51;95.11
18509;BME280;9383;50.928;12.116;2023-01-28T11:20:42;100009.44;;;0.51;94.44
18509;BME280;9383;50.928;12.116;2023-01-28T11:23:21;100015.56;;;0.53;93.85
18509;BME280;9383;50.928;12.116;2023-01-28T11:25:48;100010.34;;;0.53;93.83
18509;BME280;9383;50.928;12.116;2023-01-28T11:28:41;100007.69;;;0.51;94.14
18509;BME280;9383;50.928;12.116;2023-01-28T11:31:09;100014.66;;;0.51;94.06
18509;BME280;9383;50.928;12.116;2023-01-28T11:33:58;100012.03;;;0.51;94.44
18509;BME280;9383;50.928;12.116;2023-01-28T11:36:32;100011.09;;;0.49;93.33
18509;BME280;9383;50.928;12.116;2023-01-28T11:39:22;100010.25;;;0.48;92.68
18509;BME280;9383;50.928;12.116;2023-01-28T11:41:51;100009.44;;;0.51;92.33
18509;BME280;9383;50.928;12.116;2023-01-28T11:44:25;100010.19;;;0.47;91.38
18509;BME280;9383;50.928;12.116;2023-01-28T11:47:14;100011.09;;;0.47;91.18
18509;BME280;9383;50.928;12.116;2023-01-28T11:50:12;100008.44;;;0.46;90.91
18509;BME280;9383;50.928;12.116;2023-01-28T12:01:09;100006.91;;;0.55;92.43
18509;BME280;9383;50.928;12.116;2023-01-28T12:07:13;100007.00;;;0.60;91.95
18509;BME280;9383;50.928;12.116;2023-01-28T12:10:08;99997.44;;;0.59;91.20
18509;BME280;9383;50.928;12.116;2023-01-28T12:13:00;100001.72;;;0.57;90.28
18509;BME280;9383;50.928;12.116;2023-01-28T12:15:36;100000.03;;;0.58;89.89
18509;BME280;9383;50.928;12.116;2023-01-28T12:21:13;99997.13;;;0.45;87.25
18509;BME280;9383;50.928;12.116;2023-01-28T12:27:19;99995.44;;;0.49;88.09
18509;BME280;9383;50.928;12.116;2023-01-28T12:32:51;99988.56;;;0.52;88.30
18509;BME280;9383;50.928;12.116;2023-01-28T12:38:22;99986.00;;;0.54;87.43
18509;BME280;9383;50.928;12.116;2023-01-28T12:41:00;99984.16;;;0.50;86.00
18509;BME280;9383;50.928;12.116;2023-01-28T12:43:50;99974.56;;;0.49;85.87
18509;BME280;9383;50.928;12.116;2023-01-28T12:49:14;99988.22;;;0.37;83.29
18509;BME280;9383;50.928;12.116;2023-01-28T12:52:36;99979.56;;;0.38;84.64
18509;BME280;9383;50.928;12.116;2023-01-28T12:54:40;99981.38;;;0.42;84.88
18509;BME280;9383;50.928;12.116;2023-01-28T12:57:17;99977.06;;;0.44;85.40
18509;BME280;9383;50.928;12.116;2023-01-28T13:03:10;99978.03;;;0.48;86.61
18509;BME280;9383;50.928;12.116;2023-01-28T13:06:05;99978.13;;;0.51;86.37
18509;BME280;9383;50.928;12.116;2023-01-28T13:08:30;99975.56;;;0.54;87.22
18509;BME280;9383;50.928;12.116;2023-01-28T13:11:01;99974.72;;;0.55;87.01
18509;BME280;9383;50.928;12.116;2023-01-28T13:13:37;99976.50;;;0.56;86.90
18509;BME280;9383;50.928;12.116;2023-01-28T13:16:08;99990.44;;;0.58;87.24
18509;BME280;9383;50.928;12.116;2023-01-28T13:18:44;99972.19;;;0.58;87.02
18509;BME280;9383;50.928;12.116;2023-01-28T13:29:32;99985.28;;;0.61;86.11
18509;BME280;9383;50.928;12.116;2023-01-28T13:32:24;99990.50;;;0.61;86.11
18509;BME280;9383;50.928;12.116;2023-01-28T13:34:58;99991.41;;;0.62;86.39
18509;BME280;9383;50.928;12.116;2023-01-28T13:37:38;99996.63;;;0.62;86.14
18509;BME280;9383;50.928;12.116;2023-01-28T13:42:38;99983.50;;;0.59;86.10
18509;BME280;9383;50.928;12.116;2023-01-28T13:45:32;99993.09;;;0.60;85.93
18509;BME280;9383;50.928;12.116;2023-01-28T13:48:23;100003.53;;;0.60;86.05
18509;BME280;9383;50.928;12.116;2023-01-28T13:50:54;100003.53;;;0.60;86.34
18509;BME280;9383;50.928;12.116;2023-01-28T13:53:40;100011.31;;;0.58;85.86
18509;BME280;9383;50.928;12.116;2023-01-28T13:56:21;100019.16;;;0.58;86.35
18509;BME280;9383;50.928;12.116;2023-01-28T14:05:10;100018.25;;;0.56;86.40
18509;BME280;9383;50.928;12.116;2023-01-28T14:10:56;100020.81;;;0.54;86.73
18509;BME280;9383;50.928;12.116;2023-01-28T14:14:08;100026.00;;;0.54;86.58
18509;BME280;9383;50.928;12.116;2023-01-28T14:16:46;100015.56;;;0.53;86.55
18509;BME280;9383;50.928;12.116;2023-01-28T14:19:27;100013.81;;;0.52;86.54
18509;BME280;9383;50.928;12.116;2023-01-28T14:21:55;100020.66;;;0.48;87.19
18509;BME280;9383;50.928;12.116;2023-01-28T14:24:22;100019.78;;;0.48;87.18
18509;BME280;9383;50.928;12.116;2023-01-28T14:27:46;100009.31;;;0.46;86.86
18509;BME280;9383;50.928;12.116;2023-01-28T14:30:15;100010.06;;;0.42;86.74
18509;BME280;9383;50.928;12.116;2023-01-28T14:32:50;100009.22;;;0.41;86.79
18509;BME280;9383;50.928;12.116;2023-01-28T14:35:31;100007.41;;;0.39;86.78
18509;BME280;9383;50.928;12.116;2023-01-28T14:38:00;100010.84;;;0.38;86.96
18509;BME280;9383;50.928;12.116;2023-01-28T14:40:35;100001.97;;;0.30;84.70